createdAt,value
2022-09-07T00:02:05.096Z,75.39
2022-09-07T00:06:16.720Z,75.81
2022-09-07T00:10:28.942Z,76.24
2022-09-07T00:14:40.547Z,76.52
2022-09-07T00:18:55.444Z,76.34
2022-09-07T00:23:07.081Z,76.61
2022-09-07T00:27:18.725Z,76.28
2022-09-07T00:31:31.495Z,75.90
2022-09-07T00:35:43.151Z,75.52
2022-09-07T00:39:54.784Z,75.81
2022-09-07T00:44:42.863Z,76.27
2022-09-07T00:49:00.916Z,75.93
2022-09-07T00:53:24.052Z,76.13
2022-09-07T00:57:37.649Z,76.51
2022-09-07T01:01:49.438Z,77.12
2022-09-07T01:06:10.599Z,77.60
2022-09-07T01:10:25.909Z,77.52
2022-09-07T01:14:48.369Z,77.26
2022-09-07T01:19:16.926Z,77.57
2022-09-07T01:23:55.538Z,77.77
2022-09-07T01:28:22.703Z,77.55
2022-09-07T01:32:59.242Z,77.28
2022-09-07T01:37:29.524Z,77.13
2022-09-07T01:42:08.577Z,76.57
2022-09-07T01:46:47.785Z,77.09
2022-09-07T01:51:03.379Z,76.99
2022-09-07T01:55:55.699Z,76.97
2022-09-07T02:00:15.451Z,77.01
2022-09-07T02:04:41.802Z,77.30
2022-09-07T02:08:58.987Z,77.05
2022-09-07T02:13:23.551Z,76.97
2022-09-07T02:17:42.445Z,77.24
2022-09-07T02:22:05.507Z,76.84
2022-09-07T02:26:22.190Z,77.09
2022-09-07T02:30:34.008Z,77.31
2022-09-07T02:34:46.210Z,77.65
2022-09-07T02:38:57.765Z,77.90
2022-09-07T02:43:11.537Z,77.42
2022-09-07T02:48:05.146Z,77.37
2022-09-07T02:52:37.044Z,77.40
2022-09-07T02:57:10.568Z,77.77
2022-09-07T03:01:55.584Z,77.52
2022-09-07T03:06:14.084Z,77.43
2022-09-07T03:10:26.707Z,77.20
2022-09-07T03:14:40.707Z,77.27
2022-09-07T03:18:52.264Z,77.36
2022-09-07T03:23:03.870Z,77.23
2022-09-07T03:27:15.431Z,77.06
2022-09-07T03:31:27.090Z,76.53
2022-09-07T03:35:38.645Z,77.32
2022-09-07T03:39:50.200Z,77.34
2022-09-07T03:44:05.729Z,76.57
2022-09-07T03:48:17.296Z,76.76
2022-09-07T03:52:28.894Z,76.55
2022-09-07T03:56:40.491Z,76.12
2022-09-07T04:00:52.103Z,75.83
2022-09-07T04:05:03.807Z,76.01
2022-09-07T04:09:15.422Z,76.12
2022-09-07T04:13:28.415Z,75.59
2022-09-07T04:17:40.031Z,75.61
2022-09-07T04:21:51.695Z,75.74
2022-09-07T04:26:03.311Z,75.71
2022-09-07T04:30:14.986Z,76.00
2022-09-07T04:34:26.693Z,75.86
2022-09-07T04:38:40.042Z,75.97
2022-09-07T04:42:51.641Z,76.11
2022-09-07T04:47:03.244Z,76.11
2022-09-07T04:51:15.228Z,75.88
2022-09-07T04:55:26.854Z,76.20
2022-09-07T04:59:38.490Z,76.08
2022-09-07T05:03:50.717Z,76.03
2022-09-07T05:08:02.432Z,76.08
2022-09-07T05:12:14.015Z,76.08
2022-09-07T05:16:26.399Z,75.93
2022-09-07T05:20:38.009Z,75.71
2022-09-07T05:24:49.553Z,76.12
2022-09-07T05:38:07.623Z,76.21
2022-09-07T05:42:19.397Z,76.44
2022-09-07T05:46:31.209Z,76.41
2022-09-07T05:50:52.736Z,76.38
2022-09-07T05:55:28.224Z,76.57
2022-09-07T05:59:36.203Z,76.52
2022-09-07T06:03:47.874Z,76.37
2022-09-07T06:07:59.478Z,76.20
2022-09-07T06:12:11.091Z,76.24
2022-09-07T06:16:22.890Z,76.17
2022-09-07T06:20:34.512Z,76.00
2022-09-07T06:24:46.113Z,75.60
2022-09-07T06:28:58.169Z,75.10
2022-09-07T06:33:09.828Z,74.17
2022-09-07T06:37:21.376Z,73.16
2022-09-07T06:50:38.310Z,72.14
2022-09-07T06:59:08.761Z,71.02
2022-09-07T07:03:20.841Z,70.16
2022-09-07T07:07:32.516Z,70.28
2022-09-07T07:11:44.693Z,70.20
2022-09-07T07:16:22.589Z,70.27
2022-09-07T07:20:39.243Z,69.65
2022-09-07T07:24:50.843Z,69.02
2022-09-07T07:29:03.541Z,68.86
2022-09-07T07:33:24.055Z,69.12
2022-09-07T07:37:37.215Z,69.29
2022-09-07T07:41:57.684Z,69.52
2022-09-07T07:46:16.642Z,69.79
2022-09-07T07:50:32.259Z,69.86
2022-09-07T07:54:45.231Z,70.05
2022-09-07T07:58:56.781Z,70.33
2022-09-07T08:03:08.320Z,70.20
2022-09-07T08:07:19.866Z,70.36
2022-09-07T08:11:31.631Z,70.00
2022-09-07T08:15:48.458Z,68.88
2022-09-07T08:20:00.391Z,68.68
2022-09-07T08:24:11.939Z,66.16
2022-09-07T08:28:23.983Z,63.67
2022-09-07T08:32:35.738Z,62.65
2022-09-07T08:36:47.445Z,62.46
2022-09-07T08:40:59.936Z,63.04
2022-09-07T08:45:21.816Z,62.23
2022-09-07T08:50:04.263Z,60.15
2022-09-07T08:54:16.901Z,58.22
2022-09-07T08:58:50.172Z,56.85
2022-09-07T09:08:19.021Z,52.55
2022-09-07T09:12:52.175Z,51.84
2022-09-07T09:17:10.594Z,49.38
2022-09-07T09:21:22.440Z,47.58
2022-09-07T09:25:37.153Z,46.13
2022-09-07T09:29:48.695Z,45.38
2022-09-07T09:34:15.705Z,44.55
2022-09-07T09:38:29.401Z,42.85
2022-09-07T09:42:41.068Z,42.21
2022-09-07T09:56:04.542Z,39.63
2022-09-07T10:00:27.866Z,38.64
2022-09-07T10:04:40.981Z,38.72
2022-09-07T10:08:58.242Z,37.39
2022-09-07T10:13:20.457Z,37.52
2022-09-07T10:17:43.275Z,37.25
2022-09-07T10:21:57.952Z,37.12
2022-09-07T10:26:36.592Z,37.42
2022-09-07T10:31:16.619Z,36.60
2022-09-07T10:35:31.546Z,35.85
2022-09-07T10:40:08.899Z,35.88
2022-09-07T10:44:52.785Z,35.39
2022-09-07T10:49:27.709Z,35.16
2022-09-07T10:59:05.831Z,34.59
2022-09-07T11:03:30.947Z,34.13
2022-09-07T11:07:47.819Z,34.91
2022-09-07T11:12:15.071Z,35.90
2022-09-07T11:21:12.513Z,36.31
2022-09-07T11:25:33.944Z,35.42
2022-09-07T11:29:55.126Z,36.10
2022-09-07T11:34:26.122Z,36.40
2022-09-07T11:38:45.241Z,37.62
2022-09-07T11:43:05.243Z,37.41
2022-09-07T11:47:31.051Z,36.67
2022-09-07T11:51:54.401Z,36.68
2022-09-07T11:56:13.973Z,36.23
2022-09-07T12:00:48.824Z,36.82
2022-09-07T12:05:25.148Z,36.52
2022-09-07T12:09:45.706Z,36.29
2022-09-07T12:14:19.282Z,36.68
2022-09-07T12:19:01.756Z,35.82
2022-09-07T12:23:16.256Z,34.96
2022-09-07T12:27:37.625Z,35.01
2022-09-07T12:32:08.278Z,34.84
2022-09-07T12:36:26.440Z,35.80
2022-09-07T12:40:37.964Z,35.99
2022-09-07T12:45:27.597Z,36.47
2022-09-07T12:49:59.933Z,35.90
2022-09-07T12:54:20.382Z,34.76
2022-09-07T12:58:44.437Z,35.33
2022-09-07T13:03:52.633Z,35.18
2022-09-07T13:08:09.340Z,36.56
2022-09-07T13:17:46.497Z,37.16
2022-09-07T13:21:58.090Z,37.33
2022-09-07T13:26:13.020Z,37.25
2022-09-07T13:31:03.500Z,37.02
2022-09-07T13:35:25.363Z,36.85
2022-09-07T13:39:44.914Z,37.02
2022-09-07T13:44:02.087Z,36.85
2022-09-07T13:48:31.920Z,37.09
2022-09-07T13:52:47.843Z,36.50
2022-09-07T13:57:20.709Z,36.93
2022-09-07T14:01:33.004Z,36.92
2022-09-07T14:05:44.640Z,36.98
2022-09-07T14:10:11.552Z,37.31
2022-09-07T14:14:24.459Z,37.51
2022-09-07T14:18:36.481Z,38.04
2022-09-07T14:28:57.370Z,38.80
2022-09-07T14:33:20.264Z,38.34
2022-09-07T14:37:31.902Z,38.15
2022-09-07T14:41:45.188Z,37.33
2022-09-07T14:46:26.858Z,37.41
2022-09-07T14:50:41.186Z,37.87
2022-09-07T14:54:54.721Z,38.13
2022-09-07T14:59:44.139Z,38.21
2022-09-07T15:03:56.848Z,38.59
2022-09-07T15:08:20.247Z,38.64
2022-09-07T15:12:38.701Z,38.35
2022-09-07T15:21:36.613Z,37.29
2022-09-07T15:25:53.649Z,36.51
2022-09-07T15:30:05.999Z,36.38
2022-09-07T15:34:20.273Z,36.69
2022-09-07T15:43:16.509Z,36.18
2022-09-07T15:47:51.147Z,35.50
2022-09-07T15:52:05.544Z,35.87
2022-09-07T15:56:20.161Z,35.90
2022-09-07T16:00:32.621Z,35.99
2022-09-07T16:04:44.471Z,35.94
2022-09-07T16:08:56.328Z,36.57
2022-09-07T16:13:16.305Z,36.50
2022-09-07T16:17:35.765Z,36.25
2022-09-07T16:21:48.456Z,36.31
2022-09-07T16:26:02.217Z,36.53
2022-09-07T16:30:13.863Z,36.48
2022-09-07T16:34:25.551Z,36.52
2022-09-07T16:38:45.486Z,37.30
2022-09-07T16:42:57.473Z,37.65
2022-09-07T16:47:09.739Z,38.18
2022-09-07T16:51:22.992Z,38.15
2022-09-07T16:55:34.638Z,38.26
2022-09-07T16:59:48.163Z,38.49
2022-09-07T17:04:00.710Z,38.72
2022-09-07T17:08:14.653Z,39.39
2022-09-07T17:12:26.421Z,39.64
2022-09-07T17:16:40.033Z,39.94
2022-09-07T17:20:58.578Z,40.32
2022-09-07T17:25:10.385Z,40.73
2022-09-07T17:29:22.086Z,40.62
2022-09-07T17:33:34.721Z,41.19
2022-09-07T17:37:46.350Z,41.48
2022-09-07T17:41:58.245Z,41.79
2022-09-07T17:46:14.397Z,41.94
2022-09-07T17:50:26.704Z,42.18
2022-09-07T17:54:39.338Z,42.29
2022-09-07T17:58:51.239Z,42.90
2022-09-07T18:03:03.748Z,42.82
2022-09-07T18:07:15.690Z,43.37
2022-09-07T18:16:00.095Z,44.39
2022-09-07T18:20:12.014Z,45.00
2022-09-07T18:24:24.346Z,45.58
2022-09-07T18:33:08.705Z,46.91
2022-09-07T18:37:20.492Z,47.45
2022-09-07T18:41:34.529Z,47.67
2022-09-07T18:45:46.096Z,48.08
2022-09-07T18:49:57.782Z,48.84
2022-09-07T18:54:09.449Z,49.09
2022-09-07T18:58:21.002Z,49.67
2022-09-07T19:02:33.519Z,50.08
2022-09-07T19:06:45.300Z,50.63
2022-09-07T19:11:02.923Z,50.75
2022-09-07T19:15:14.970Z,51.29
2022-09-07T19:19:26.702Z,51.71
2022-09-07T19:23:38.444Z,52.61
2022-09-07T19:27:50.034Z,53.06
2022-09-07T19:32:04.589Z,53.24
2022-09-07T19:36:16.255Z,53.26
2022-09-07T19:40:27.845Z,53.48
2022-09-07T19:44:39.440Z,53.87
2022-09-07T19:48:51.394Z,54.05
2022-09-07T19:53:02.949Z,54.07
2022-09-07T19:57:14.601Z,54.31
2022-09-07T20:01:26.373Z,54.58
2022-09-07T20:05:41.477Z,54.72
2022-09-07T20:09:53.143Z,54.85
2022-09-07T20:14:04.763Z,55.09
2022-09-07T20:18:16.369Z,55.35
2022-09-07T20:22:28.580Z,55.52
2022-09-07T20:26:40.147Z,55.80
2022-09-07T20:30:51.969Z,55.99
2022-09-07T20:35:03.591Z,56.26
2022-09-07T20:39:16.425Z,56.47
2022-09-07T20:43:27.973Z,56.65
2022-09-07T20:47:39.759Z,57.03
2022-09-07T20:51:51.348Z,57.19
2022-09-07T20:56:13.274Z,57.49
2022-09-07T21:00:25.781Z,57.76
2022-09-07T21:04:37.289Z,58.09
2022-09-07T21:08:49.595Z,58.60
2022-09-07T21:13:01.134Z,58.63
2022-09-07T21:17:12.681Z,58.77
2022-09-07T21:21:26.485Z,58.64
2022-09-07T21:25:44.213Z,58.94
2022-09-07T21:29:55.761Z,59.22
2022-09-07T21:34:07.357Z,59.55
2022-09-07T21:38:21.450Z,59.48
2022-09-07T21:42:33.050Z,59.63
2022-09-07T21:46:45.121Z,59.53
2022-09-07T21:50:57.208Z,59.56
2022-09-07T21:55:08.860Z,59.63
2022-09-07T21:59:20.434Z,59.78
2022-09-07T22:03:32.096Z,59.80
2022-09-07T22:07:43.747Z,60.07
2022-09-07T22:11:55.381Z,60.25
2022-09-07T22:16:07.981Z,60.32
2022-09-07T22:20:19.804Z,60.52
2022-09-07T22:24:31.601Z,60.79
2022-09-07T22:28:43.360Z,61.04
2022-09-07T22:32:55.108Z,60.79
2022-09-07T22:37:06.807Z,60.78
2022-09-07T22:41:20.947Z,60.58
2022-09-07T22:45:32.514Z,60.81
2022-09-07T22:49:44.114Z,60.83
2022-09-07T22:53:56.234Z,60.72
2022-09-07T22:58:07.773Z,60.79
2022-09-07T23:02:19.375Z,60.73
2022-09-07T23:06:34.494Z,60.81
2022-09-07T23:10:46.129Z,60.89
2022-09-07T23:14:57.696Z,60.91
2022-09-07T23:19:12.282Z,60.55
2022-09-07T23:23:23.916Z,61.05
2022-09-07T23:27:35.862Z,60.96
2022-09-07T23:31:48.152Z,60.87
2022-09-07T23:36:05.063Z,60.99
2022-09-07T23:40:16.942Z,61.24
2022-09-07T23:44:28.496Z,61.13
2022-09-07T23:48:40.538Z,61.30
2022-09-07T23:52:52.113Z,60.98
2022-09-07T23:57:03.774Z,60.92
